Time;durP1;ratioP1;P1;durP2;ratioP2;P2;SDS_P1;SDS_P2;PMS_P1;PMS_P2;Temp;Humidity;BMP_temperature;BMP_pressure;BME280_temperature;BME280_humidity;BME280_pressure;Samples;Min_cycle;Max_cycle;Signal;HPM_P1;HPM_P2
2023/05/21 00:01:36;;;;;;;16.00;8.27;;;;;;;12.67;100.00;97606.66;5060140;28;20222;-81
2023/05/21 00:04:02;;;;;;;17.35;8.23;;;;;;;12.69;100.00;97612.78;5076645;28;20575;-81
2023/05/21 00:06:28;;;;;;;15.02;8.43;;;;;;;12.70;100.00;97620.72;5060358;28;20028;-82
2023/05/21 00:08:53;;;;;;;13.68;8.73;;;;;;;12.73;100.00;97616.97;5058152;28;20415;-83
2023/05/21 00:11:19;;;;;;;15.73;8.10;;;;;;;12.67;100.00;97607.53;5094723;28;20028;-81
2023/05/21 00:13:44;;;;;;;17.85;8.90;;;;;;;12.67;100.00;97617.41;5065983;28;20572;-81
2023/05/21 00:16:10;;;;;;;18.70;11.10;;;;;;;12.56;100.00;97615.44;5036397;28;20063;-81
2023/05/21 00:18:38;;;;;;;40.97;24.27;;;;;;;12.59;100.00;97623.28;5036498;28;20025;-81
2023/05/21 00:21:04;;;;;;;52.88;31.58;;;;;;;12.57;100.00;97608.25;5053411;28;20479;-81
2023/05/21 00:23:31;;;;;;;33.22;19.63;;;;;;;12.54;100.00;97616.50;5053727;28;20021;-81
2023/05/21 00:25:58;;;;;;;29.30;16.88;;;;;;;12.47;100.00;97614.25;5053495;28;20047;-80
2023/05/21 00:28:23;;;;;;;30.17;16.02;;;;;;;12.50;100.00;97618.53;5053299;28;20039;-81
2023/05/21 00:30:49;;;;;;;27.65;13.82;;;;;;;12.42;100.00;97613.72;5036193;28;20405;-81
2023/05/21 00:33:15;;;;;;;24.73;14.25;;;;;;;12.50;100.00;97614.03;5052721;28;20021;-80
2023/05/21 00:35:40;;;;;;;41.35;20.77;;;;;;;12.49;100.00;97609.63;5052960;28;20024;-80
2023/05/21 00:38:07;;;;;;;20.70;11.90;;;;;;;12.44;100.00;97611.78;5052487;28;20511;-81
2023/05/21 00:40:34;;;;;;;22.05;11.18;;;;;;;12.35;100.00;97609.72;5052786;28;20017;-80
2023/05/21 00:43:00;;;;;;;21.27;8.95;;;;;;;12.21;100.00;97615.16;5052771;28;20016;-81
2023/05/21 00:45:25;;;;;;;17.50;7.90;;;;;;;12.19;100.00;97616.22;5052823;28;20481;-81
2023/05/21 00:47:53;;;;;;;12.65;8.20;;;;;;;12.07;100.00;97604.50;5053203;28;20028;-81
2023/05/21 00:50:20;;;;;;;16.40;8.13;;;;;;;12.00;100.00;97605.84;5044329;28;20024;-81
2023/05/21 00:52:47;;;;;;;15.00;8.50;;;;;;;12.00;100.00;97605.03;5052853;28;20054;-81
2023/05/21 00:55:13;;;;;;;14.10;9.30;;;;;;;12.11;100.00;97606.03;5036408;28;20025;-80
2023/05/21 00:57:39;;;;;;;15.20;8.57;;;;;;;12.14;100.00;97611.19;5053945;28;20020;-81
2023/05/21 01:00:07;;;;;;;15.15;8.75;;;;;;;12.12;100.00;97605.03;5036060;28;20025;-80
2023/05/21 01:02:35;;;;;;;12.18;8.40;;;;;;;12.05;100.00;97609.13;5029390;28;20025;-80
2023/05/21 01:05:05;;;;;;;17.25;8.73;;;;;;;12.07;100.00;97612.53;5052477;28;20104;-80
2023/05/21 01:07:35;;;;;;;13.38;8.60;;;;;;;12.02;100.00;97595.91;5052253;28;20480;-80
2023/05/21 01:10:06;;;;;;;14.80;8.45;;;;;;;12.09;100.00;97607.94;5034839;28;20029;-81
2023/05/21 01:12:33;;;;;;;20.15;9.60;;;;;;;12.13;100.00;97617.50;5051925;28;20417;-81
2023/05/21 01:15:00;;;;;;;17.38;9.30;;;;;;;12.15;100.00;97612.88;5051991;28;20500;-81
2023/05/21 01:17:27;;;;;;;16.80;10.13;;;;;;;12.22;100.00;97616.88;5050162;28;20108;-81
2023/05/21 01:19:53;;;;;;;18.67;9.55;;;;;;;12.30;100.00;97614.56;5052141;28;20087;-81
2023/05/21 01:22:20;;;;;;;19.52;10.75;;;;;;;12.40;100.00;97626.34;5035602;28;20029;-81
2023/05/21 01:24:48;;;;;;;25.85;10.75;;;;;;;12.49;100.00;97630.22;5035400;28;20472;-81
2023/05/21 01:27:14;;;;;;;21.88;11.52;;;;;;;12.59;100.00;97619.72;5053075;28;20029;-81
2023/05/21 01:29:40;;;;;;;24.30;11.30;;;;;;;12.72;100.00;97623.28;5053123;28;20504;-81
2023/05/21 01:32:11;;;;;;;17.50;8.90;;;;;;;12.63;100.00;97626.63;5053267;28;20033;-81
2023/05/21 01:34:49;;;;;;;22.08;8.63;;;;;;;12.29;100.00;97623.56;5052038;28;20408;-81
2023/05/21 01:37:39;;;;;;;21.38;8.60;;;;;;;12.25;100.00;97611.31;5034970;28;20515;-80
2023/05/21 01:40:10;;;;;;;20.20;8.95;;;;;;;12.20;100.00;97604.53;5031352;28;20025;-81
2023/05/21 01:42:38;;;;;;;18.83;7.87;;;;;;;12.20;100.00;97613.44;5035138;28;20021;-81
2023/05/21 01:45:06;;;;;;;17.55;9.93;;;;;;;12.23;100.00;97612.38;5052108;28;20267;-81
2023/05/21 01:47:32;;;;;;;59.20;11.10;;;;;;;12.25;100.00;97605.94;5051362;28;20029;-82
2023/05/21 01:49:59;;;;;;;29.88;9.70;;;;;;;12.17;100.00;97602.94;5051858;28;20032;-81
2023/05/21 01:52:25;;;;;;;19.35;10.30;;;;;;;12.16;100.00;97605.69;5051376;28;20068;-80
2023/05/21 01:54:50;;;;;;;28.88;11.38;;;;;;;12.16;100.00;97608.38;5035018;28;20401;-81
2023/05/21 01:57:17;;;;;;;30.08;11.55;;;;;;;12.22;100.00;97622.25;5051267;28;20455;-81
2023/05/21 01:59:43;;;;;;;31.80;11.35;;;;;;;12.17;100.00;97612.78;5051218;28;20086;-80
2023/05/21 02:02:09;;;;;;;23.13;11.32;;;;;;;12.26;100.00;97622.91;5052630;28;20013;-82
2023/05/21 02:04:34;;;;;;;29.23;13.18;;;;;;;12.32;100.00;97619.78;5034475;28;20039;-81
2023/05/21 02:07:01;;;;;;;62.47;13.05;;;;;;;12.38;100.00;97614.88;5052712;28;20115;-81
2023/05/21 02:09:26;;;;;;;34.40;13.35;;;;;;;12.46;100.00;97614.34;5051295;28;20062;-81
2023/05/21 02:11:52;;;;;;;37.42;13.20;;;;;;;12.47;100.00;97610.72;5030906;28;20091;-81
2023/05/21 02:14:17;;;;;;;25.90;12.80;;;;;;;12.49;100.00;97615.00;5066281;28;20124;-81
2023/05/21 02:16:43;;;;;;;29.95;12.98;;;;;;;12.47;100.00;97610.72;5074102;28;20020;-80
2023/05/21 02:19:10;;;;;;;33.95;14.40;;;;;;;12.50;100.00;97606.00;5050605;28;20028;-82
2023/05/21 02:21:35;;;;;;;31.52;13.18;;;;;;;12.54;100.00;97613.84;5072986;28;20032;-81
2023/05/21 02:24:00;;;;;;;35.65;13.10;;;;;;;12.54;100.00;97609.31;5074409;28;20400;-80
2023/05/21 02:26:27;;;;;;;48.25;13.20;;;;;;;12.60;100.00;97619.63;5074100;28;20467;-80
2023/05/21 02:28:54;;;;;;;46.33;13.18;;;;;;;12.63;100.00;97621.25;5053722;28;20035;-81
2023/05/21 02:31:19;;;;;;;26.27;12.95;;;;;;;12.50;100.00;97616.72;5070613;28;20104;-82
2023/05/21 02:33:45;;;;;;;38.15;13.40;;;;;;;12.52;100.00;97601.38;5074019;28;20082;-80
2023/05/21 02:36:11;;;;;;;41.25;11.43;;;;;;;12.60;100.00;97602.69;5057608;28;20024;-80
2023/05/21 02:38:44;;;;;;;27.13;12.20;;;;;;;12.66;100.00;97602.25;5057323;28;20495;-81
2023/05/21 02:41:12;;;;;;;65.68;13.50;;;;;;;12.70;100.00;97603.75;5092154;28;20027;-82
2023/05/21 02:43:38;;;;;;;56.22;12.35;;;;;;;12.70;100.00;97609.13;5057099;28;20039;-81
2023/05/21 02:46:05;;;;;;;34.97;12.70;;;;;;;12.71;100.00;97605.47;5056971;28;20027;-80
2023/05/21 02:48:30;;;;;;;30.02;12.68;;;;;;;12.69;100.00;97602.91;5057215;28;20113;-82
2023/05/21 02:50:57;;;;;;;32.85;12.18;;;;;;;12.63;100.00;97597.09;5057480;28;20052;-81
2023/05/21 02:53:22;;;;;;;51.42;11.50;;;;;;;12.70;100.00;97601.06;5074389;28;20508;-80
2023/05/21 02:55:48;;;;;;;57.22;11.63;;;;;;;12.72;100.00;97612.56;5073636;28;20152;-80
2023/05/21 02:58:13;;;;;;;28.10;11.85;;;;;;;12.66;100.00;97602.25;5056705;28;20447;-82
2023/05/21 03:00:39;;;;;;;23.88;11.10;;;;;;;12.65;100.00;97597.84;5056785;28;20051;-81
2023/05/21 03:03:05;;;;;;;34.45;11.80;;;;;;;12.62;100.00;97593.53;5073555;28;20034;-81
2023/05/21 03:05:30;;;;;;;21.52;11.80;;;;;;;12.64;100.00;97585.41;5073318;28;20023;-81
2023/05/21 03:07:56;;;;;;;23.27;12.25;;;;;;;12.72;100.00;97597.31;5091300;28;20062;-81
2023/05/21 03:10:21;;;;;;;21.42;11.00;;;;;;;12.74;100.00;97590.00;5073287;28;20028;-80
2023/05/21 03:12:47;;;;;;;21.73;11.68;;;;;;;12.74;100.00;97597.19;5073020;28;20089;-80
2023/05/21 03:15:15;;;;;;;34.35;11.65;;;;;;;12.71;100.00;97592.91;5056633;28;20052;-81
2023/05/21 03:17:41;;;;;;;23.67;11.20;;;;;;;12.73;100.00;97600.88;5057300;28;20081;-81
2023/05/21 03:20:08;;;;;;;25.33;11.45;;;;;;;12.72;100.00;97597.31;5056415;28;20036;-81
2023/05/21 03:22:33;;;;;;;22.27;10.73;;;;;;;12.76;100.00;97590.78;5056158;28;20059;-81
2023/05/21 03:25:00;;;;;;;19.40;10.52;;;;;;;12.78;100.00;97590.66;5073188;28;20055;-80
2023/05/21 03:27:26;;;;;;;23.20;9.45;;;;;;;12.74;100.00;97587.31;5056586;28;20032;-78
2023/05/21 03:29:54;;;;;;;19.42;10.55;;;;;;;12.80;100.00;97591.41;5091581;28;20032;-81
2023/05/21 03:32:20;;;;;;;15.05;8.77;;;;;;;12.77;100.00;97586.25;5056096;28;20031;-81
2023/05/21 03:34:45;;;;;;;18.25;9.02;;;;;;;12.78;100.00;97585.28;5091554;28;20028;-81
2023/05/21 03:37:11;;;;;;;21.85;10.27;;;;;;;12.83;100.00;97581.31;5056398;28;20560;-82
2023/05/21 03:39:36;;;;;;;40.50;10.50;;;;;;;12.81;100.00;97569.84;5048142;28;20069;-81
2023/05/21 03:42:02;;;;;;;40.55;9.32;;;;;;;12.80;100.00;97564.56;5090591;28;20452;-81
2023/05/21 03:44:31;;;;;;;20.85;9.65;;;;;;;12.79;100.00;97574.47;5056320;28;20032;-81
2023/05/21 03:46:57;;;;;;;34.00;9.65;;;;;;;12.91;100.00;97591.53;5091188;28;20047;-81
2023/05/21 03:49:23;;;;;;;16.13;8.82;;;;;;;12.98;100.00;97584.75;5073177;28;20089;-80
2023/05/21 03:51:48;;;;;;;27.60;9.85;;;;;;;12.95;100.00;97564.31;5072842;28;20028;-80
2023/05/21 03:54:14;;;;;;;17.23;9.32;;;;;;;13.00;100.00;97577.44;5073134;28;20454;-80
2023/05/21 03:56:40;;;;;;;22.23;9.52;;;;;;;13.04;100.00;97569.03;5056113;28;20480;-82
2023/05/21 03:59:05;;;;;;;19.95;9.63;;;;;;;13.07;100.00;97570.69;5050125;28;20412;-80
2023/05/21 04:01:31;;;;;;;16.15;9.27;;;;;;;13.09;100.00;97571.44;5056388;28;20074;-81
2023/05/21 04:03:57;;;;;;;18.15;8.95;;;;;;;13.13;100.00;97566.72;5056692;28;20028;-81
2023/05/21 04:06:23;;;;;;;14.15;8.25;;;;;;;13.20;100.00;97558.09;5072674;28;20027;-80
2023/05/21 04:08:48;;;;;;;11.05;6.65;;;;;;;13.23;100.00;97557.88;5072854;28;20032;-81
2023/05/21 04:11:14;;;;;;;14.95;8.07;;;;;;;13.26;100.00;97546.91;5072776;28;20031;-82
2023/05/21 04:13:39;;;;;;;22.02;11.50;;;;;;;13.38;100.00;97551.38;5072563;28;20058;-80
2023/05/21 04:16:07;;;;;;;31.98;10.90;;;;;;;13.32;100.00;97542.94;5072780;28;20514;-79
2023/05/21 04:18:33;;;;;;;31.83;11.13;;;;;;;13.26;100.00;97541.53;5052516;28;20456;-81
2023/05/21 04:21:00;;;;;;;23.60;11.18;;;;;;;13.24;100.00;97543.47;5056352;28;20016;-81
2023/05/21 04:23:26;;;;;;;23.20;11.30;;;;;;;13.31;100.00;97550.13;5056290;28;20456;-81
2023/05/21 04:25:52;;;;;;;21.92;11.00;;;;;;;13.31;100.00;97552.81;5090673;28;20020;-81
2023/05/21 04:28:20;;;;;;;30.42;11.15;;;;;;;13.31;100.00;97566.25;5072340;28;20506;-81
2023/05/21 04:30:46;;;;;;;27.13;11.43;;;;;;;13.31;100.00;97560.88;5073226;28;20085;-81
2023/05/21 04:33:16;;;;;;;21.85;11.85;;;;;;;13.34;100.00;97549.03;5055390;28;20062;-80
2023/05/21 04:35:48;;;;;;;36.40;11.23;;;;;;;13.40;100.00;97548.59;5073198;28;20412;-82
2023/05/21 04:38:18;;;;;;;25.90;9.80;;;;;;;13.49;100.00;97540.72;5072339;28;20499;-82
2023/05/21 04:40:45;;;;;;;16.60;9.38;;;;;;;13.56;100.00;97544.69;5073195;28;20499;-83
2023/05/21 04:43:10;;;;;;;18.35;9.93;;;;;;;13.71;100.00;97536.44;5055681;28;20552;-81
2023/05/21 04:45:36;;;;;;;15.18;8.77;;;;;;;13.61;100.00;97517.44;5074431;28;20036;-81
2023/05/21 04:48:02;;;;;;;17.30;9.40;;;;;;;13.73;100.00;97518.34;5044018;28;20032;-81
2023/05/21 04:50:30;;;;;;;19.23;9.70;;;;;;;13.87;100.00;97515.50;5093913;28;20032;-80
2023/05/21 04:52:57;;;;;;;16.08;9.40;;;;;;;13.98;100.00;97515.53;5059787;28;20055;-79
2023/05/21 04:55:23;;;;;;;14.77;8.68;;;;;;;14.03;100.00;97502.59;5076220;28;20027;-80
2023/05/21 04:57:48;;;;;;;20.33;11.70;;;;;;;14.05;100.00;97498.81;5058668;28;20407;-81
2023/05/21 05:00:15;;;;;;;25.48;13.38;;;;;;;14.05;100.00;97482.69;5075277;28;20114;-81
2023/05/21 05:02:40;;;;;;;20.75;10.50;;;;;;;14.01;100.00;97485.72;5075851;28;20020;-82
2023/05/21 05:05:06;;;;;;;20.42;11.90;;;;;;;13.87;100.00;97488.63;5059075;28;20028;-82
2023/05/21 05:07:32;;;;;;;21.15;12.32;;;;;;;13.93;100.00;97488.16;5057043;28;20134;-78
2023/05/21 05:09:57;;;;;;;20.95;12.07;;;;;;;13.98;100.00;97483.25;5075292;28;20051;-81
2023/05/21 05:12:23;;;;;;;22.23;11.80;;;;;;;14.09;100.00;97483.28;5075548;28;20023;-82
2023/05/21 05:14:48;;;;;;;90.10;22.30;;;;;;;14.20;100.00;97479.78;5059098;28;20109;-82
2023/05/21 05:17:14;;;;;;;21.92;10.82;;;;;;;14.16;100.00;97478.28;5064904;28;20034;-81
2023/05/21 05:19:39;;;;;;;26.35;11.85;;;;;;;14.15;100.00;97480.13;5075283;28;20500;-81
2023/05/21 05:22:06;;;;;;;19.55;10.10;;;;;;;14.17;100.00;97475.50;5075353;28;20048;-82
2023/05/21 05:24:31;;;;;;;21.33;11.05;;;;;;;14.30;100.00;97489.72;5075193;28;20060;-81
2023/05/21 05:26:57;;;;;;;17.70;9.68;;;;;;;14.35;100.00;97492.06;5074729;28;20565;-80
2023/05/21 05:29:22;;;;;;;19.08;10.32;;;;;;;14.39;100.00;97470.19;5075331;28;20095;-80
2023/05/21 05:31:48;;;;;;;30.33;17.00;;;;;;;14.32;100.00;97473.44;5093602;28;20030;-81
2023/05/21 05:34:13;;;;;;;18.65;10.93;;;;;;;14.26;100.00;97469.41;5058699;28;20028;-81
2023/05/21 05:36:39;;;;;;;19.15;10.13;;;;;;;14.31;100.00;97461.81;5058724;28;20038;-81
2023/05/21 05:39:05;;;;;;;19.00;9.52;;;;;;;14.39;100.00;97463.94;5053484;28;20396;-81
2023/05/21 05:41:30;;;;;;;21.10;10.88;;;;;;;14.42;100.00;97469.09;5072144;28;20020;-81
2023/05/21 05:43:56;;;;;;;18.83;11.43;;;;;;;14.41;100.00;97479.00;5058069;28;20072;-80
2023/05/21 05:46:21;;;;;;;19.45;11.32;;;;;;;14.39;100.00;97470.19;5074946;28;20483;-86
2023/05/21 05:48:47;;;;;;;20.45;11.02;;;;;;;14.54;100.00;97473.50;5075045;28;20032;-79
2023/05/21 05:51:14;;;;;;;18.25;10.73;;;;;;;14.57;100.00;97465.19;5075194;28;20115;-80
2023/05/21 05:53:39;;;;;;;18.52;10.43;;;;;;;14.60;100.00;97460.41;5075109;28;20084;-79
2023/05/21 05:56:05;;;;;;;17.60;10.10;;;;;;;14.56;100.00;97461.63;5057460;28;20028;-79
2023/05/21 05:58:31;;;;;;;15.30;9.38;;;;;;;14.50;100.00;97456.75;5057432;28;20032;-84
2023/05/21 06:00:56;;;;;;;16.42;10.23;;;;;;;14.47;100.00;97446.22;5057774;28;20020;-80
2023/05/21 06:03:22;;;;;;;18.92;10.02;;;;;;;14.55;100.00;97449.16;5057741;28;20076;-85
2023/05/21 06:05:53;;;;;;;16.55;9.50;;;;;;;14.50;100.00;97445.97;5057606;28;20059;-82
2023/05/21 06:08:19;;;;;;;18.55;10.30;;;;;;;14.55;100.00;97448.31;5074692;28;20020;-80
2023/05/21 06:10:44;;;;;;;19.83;10.40;;;;;;;14.49;100.00;97444.25;5055756;28;20032;-78
2023/05/21 06:13:10;;;;;;;16.15;10.00;;;;;;;14.59;100.00;97442.53;5056927;28;20028;-78
2023/05/21 06:15:35;;;;;;;18.75;10.48;;;;;;;14.67;100.00;97451.84;5091350;28;20488;-77
2023/05/21 06:18:01;;;;;;;19.17;10.55;;;;;;;14.73;100.00;97437.91;5091555;28;20023;-78
2023/05/21 06:20:28;;;;;;;29.23;16.90;;;;;;;14.69;100.00;97431.03;5073664;28;20032;-77
2023/05/21 06:22:54;;;;;;;42.38;22.55;;;;;;;14.81;100.00;97439.00;5090259;28;20024;-77
2023/05/21 06:25:19;;;;;;;24.73;12.32;;;;;;;14.84;100.00;97432.50;5072878;28;20452;-77
2023/05/21 06:27:45;;;;;;;25.83;15.20;;;;;;;14.91;100.00;97422.94;5056280;28;20028;-77
2023/05/21 06:30:10;;;;;;;23.30;12.45;;;;;;;15.04;100.00;97429.06;5073176;28;20058;-75
2023/05/21 06:32:36;;;;;;;20.00;11.90;;;;;;;15.32;100.00;97423.06;5056093;28;20034;-79
2023/05/21 06:35:01;;;;;;;19.95;11.65;;;;;;;15.34;100.00;97410.34;5056000;28;20051;-76
2023/05/21 06:37:27;;;;;;;17.15;10.82;;;;;;;15.43;100.00;97388.03;5074066;28;20066;-82
2023/05/21 06:39:52;;;;;;;22.30;11.13;;;;;;;15.45;100.00;97391.44;5057073;28;20032;-85
2023/05/21 06:42:18;;;;;;;21.75;10.80;;;;;;;15.58;100.00;97386.75;5057994;28;20024;-86
2023/05/21 06:44:43;;;;;;;20.25;11.05;;;;;;;15.77;100.00;97380.66;5056756;28;20355;-83
2023/05/21 06:47:09;;;;;;;22.73;10.93;;;;;;;15.98;100.00;97375.25;5091543;28;20490;-82
2023/05/21 06:49:34;;;;;;;25.40;12.73;;;;;;;16.23;100.00;97380.22;5073037;28;20028;-81
2023/05/21 06:52:00;;;;;;;19.00;11.23;;;;;;;16.22;100.00;97371.28;5055685;28;20145;-81
2023/05/21 06:54:25;;;;;;;22.38;13.18;;;;;;;16.27;100.00;97365.50;5073622;28;20024;-82
2023/05/21 06:56:51;;;;;;;22.73;13.30;;;;;;;16.31;100.00;97374.16;5056784;28;20038;-83
2023/05/21 06:59:16;;;;;;;21.92;12.23;;;;;;;16.56;100.00;97371.91;5056657;28;20039;-84
2023/05/21 07:01:42;;;;;;;23.08;12.15;;;;;;;16.53;100.00;97358.63;5073419;28;20063;-82
2023/05/21 07:04:08;;;;;;;24.70;12.68;;;;;;;16.66;100.00;97355.72;5056341;28;20039;-79
2023/05/21 07:06:34;;;;;;;23.13;13.43;;;;;;;17.02;100.00;97348.84;5056864;28;20379;-85
2023/05/21 07:09:00;;;;;;;19.77;12.50;;;;;;;17.61;100.00;97346.06;5055483;28;20057;-84
2023/05/21 07:11:27;;;;;;;24.73;13.02;;;;;;;17.92;100.00;97339.47;5073881;28;20024;-82
2023/05/21 07:13:54;;;;;;;24.17;14.38;;;;;;;18.16;100.00;97334.44;5091035;28;20352;-84
2023/05/21 07:16:20;;;;;;;22.13;12.80;;;;;;;19.17;100.00;97333.53;5072592;28;20031;-84
2023/05/21 07:18:45;;;;;;;19.00;11.68;;;;;;;20.65;100.00;97320.81;5062701;28;20031;-83
2023/05/21 07:21:11;;;;;;;79.25;40.13;;;;;;;21.08;100.00;97309.78;5072244;28;20051;-83
2023/05/21 07:23:36;;;;;;;20.52;12.50;;;;;;;21.34;100.00;97303.38;5056255;28;20034;-83
2023/05/21 07:26:02;;;;;;;41.13;23.92;;;;;;;21.20;100.00;97302.16;5072491;28;20024;-83
2023/05/21 07:28:27;;;;;;;31.50;19.70;;;;;;;21.38;100.00;97283.00;5049429;28;20422;-83
2023/05/21 07:30:53;;;;;;;22.17;15.00;;;;;;;21.62;100.00;97277.56;5072321;28;20077;-84
2023/05/21 07:33:19;;;;;;;17.45;11.75;;;;;;;21.85;100.00;97286.72;5055803;28;20035;-84
2023/05/21 07:35:45;;;;;;;18.55;11.18;;;;;;;21.63;100.00;97277.38;5055942;28;20484;-82
2023/05/21 07:38:10;;;;;;;18.75;11.70;;;;;;;21.60;100.00;97282.28;5071709;28;20115;-82
2023/05/21 07:40:36;;;;;;;21.63;13.38;;;;;;;20.97;100.00;97282.03;5049639;28;20028;-86
2023/05/21 07:43:01;;;;;;;60.80;33.03;;;;;;;20.10;100.00;97282.28;5072917;28;20419;-83
2023/05/21 07:45:27;;;;;;;24.52;14.65;;;;;;;20.08;100.00;97291.59;5090562;28;20024;-81
2023/05/21 07:47:52;;;;;;;26.30;14.25;;;;;;;19.89;100.00;97279.94;5072503;28;20456;-83
2023/05/21 07:50:18;;;;;;;19.35;12.80;;;;;;;19.91;100.00;97272.47;5056041;28;20867;-83
2023/05/21 07:52:43;;;;;;;21.42;13.10;;;;;;;20.03;100.00;97290.22;5072276;28;20032;-82
2023/05/21 07:55:09;;;;;;;23.27;13.57;;;;;;;20.17;100.00;97290.63;5055761;28;20028;-82
2023/05/21 07:57:35;;;;;;;21.65;13.02;;;;;;;20.46;100.00;97280.28;5072257;28;20495;-81
2023/05/21 08:00:01;;;;;;;20.13;13.38;;;;;;;20.76;100.00;97276.19;5072232;28;20028;-82
2023/05/21 08:02:26;;;;;;;21.05;11.10;;;;;;;20.27;100.00;97285.97;5054702;28;20024;-82
2023/05/21 08:04:53;;;;;;;19.15;12.57;;;;;;;20.12;100.00;97299.25;5090716;28;20085;-83
2023/05/21 08:07:20;;;;;;;19.98;11.98;;;;;;;21.10;100.00;97287.88;5055786;28;20034;-81
2023/05/21 08:09:46;;;;;;;24.30;11.55;;;;;;;21.42;100.00;97279.75;5072737;28;20096;-82
2023/05/21 08:12:14;;;;;;;20.08;10.98;;;;;;;23.20;100.00;97274.72;5090540;28;20028;-83
2023/05/21 08:14:40;;;;;;;16.00;10.13;;;;;;;23.59;100.00;97263.72;5055787;28;20052;-81
2023/05/21 08:17:08;;;;;;;16.30;9.50;;;;;;;24.69;97.42;97246.53;5072245;28;20086;-83
2023/05/21 08:19:33;;;;;;;13.98;8.20;;;;;;;26.47;88.04;97257.44;5075409;28;20034;-80
2023/05/21 08:21:59;;;;;;;18.60;8.15;;;;;;;26.66;85.44;97253.97;5094240;28;20040;-79
2023/05/21 08:24:25;;;;;;;11.85;6.93;;;;;;;27.68;76.46;97251.22;5076032;28;20119;-83
2023/05/21 08:26:50;;;;;;;8.70;6.07;;;;;;;28.46;66.70;97231.09;5094037;28;20103;-83
2023/05/21 08:29:16;;;;;;;18.60;6.45;;;;;;;28.91;61.08;97218.28;5059076;28;20077;-83
2023/05/21 08:31:41;;;;;;;7.43;5.63;;;;;;;28.64;61.78;97200.16;5058034;28;20456;-83
2023/05/21 08:34:07;;;;;;;18.75;10.43;;;;;;;26.86;73.94;97227.47;5059538;28;20035;-84
2023/05/21 08:36:32;;;;;;;10.23;6.47;;;;;;;27.15;70.91;97226.31;5075373;28;20466;-84
2023/05/21 08:38:58;;;;;;;7.15;5.18;;;;;;;28.09;62.13;97205.13;5058650;28;20031;-84
2023/05/21 08:41:24;;;;;;;10.70;6.40;;;;;;;29.01;58.38;97199.38;5075822;28;20028;-83
2023/05/21 08:43:55;;;;;;;7.20;5.43;;;;;;;29.40;53.94;97190.94;5075719;28;20039;-83
2023/05/21 08:46:22;;;;;;;12.52;7.47;;;;;;;30.67;53.06;97208.97;5058682;28;20143;-79
2023/05/21 08:48:48;;;;;;;6.28;4.82;;;;;;;30.92;49.79;97184.84;5058114;28;20514;-80
2023/05/21 08:51:14;;;;;;;8.40;4.90;;;;;;;31.45;46.37;97169.25;5075525;28;20032;-82
2023/05/21 08:53:41;;;;;;;10.38;5.93;;;;;;;32.76;44.88;97176.38;5074845;28;20054;-84
2023/05/21 08:56:06;;;;;;;7.35;5.35;;;;;;;33.54;41.50;97163.56;5058782;28;20725;-84
2023/05/21 08:58:32;;;;;;;8.18;5.15;;;;;;;33.70;41.03;97142.53;5058779;28;20028;-81
2023/05/21 09:00:58;;;;;;;9.48;5.15;;;;;;;34.07;41.28;97157.59;5078696;28;20024;-82
2023/05/21 09:03:23;;;;;;;11.98;8.00;;;;;;;34.65;38.90;97146.00;5060005;28;20028;-79
2023/05/21 09:05:50;;;;;;;8.27;4.88;;;;;;;34.67;38.80;97129.91;5075035;28;20024;-81
2023/05/21 09:08:31;;;;;;;10.68;4.80;;;;;;;33.98;39.35;97130.50;5075549;28;20074;-82
2023/05/21 09:10:57;;;;;;;11.38;5.72;;;;;;;34.88;38.03;97146.88;5073929;28;20040;-81
2023/05/21 09:13:24;;;;;;;12.88;7.28;;;;;;;35.83;36.45;97131.25;5092799;28;20048;-80
2023/05/21 09:15:50;;;;;;;6.95;5.60;;;;;;;36.69;35.22;97120.75;5057794;28;20039;-82
2023/05/21 09:18:16;;;;;;;8.35;5.90;;;;;;;37.03;34.39;97109.22;5074861;28;20024;-80
2023/05/21 09:20:42;;;;;;;9.18;5.25;;;;;;;37.43;34.93;97114.91;5092707;28;20028;-79
2023/05/21 09:23:15;;;;;;;8.20;5.07;;;;;;;36.53;36.06;97093.91;5092402;28;20116;-80
2023/05/21 09:25:40;;;;;;;12.88;5.95;;;;;;;37.03;34.95;97092.47;5074772;28;20495;-86
2023/05/21 09:28:16;;;;;;;12.90;4.80;;;;;;;36.72;34.90;97089.53;5077985;28;20020;-78
2023/05/21 09:30:46;;;;;;;6.80;5.03;;;;;;;35.30;36.29;97056.97;5057592;28;20027;-85
2023/05/21 09:33:11;;;;;;;10.15;5.43;;;;;;;36.18;35.83;97090.91;5058398;28;20031;-85
2023/05/21 09:36:16;;;;;;;7.07;4.90;;;;;;;36.41;34.44;97068.16;5075065;28;20040;-84
2023/05/21 09:38:43;;;;;;;6.68;4.75;;;;;;;37.34;33.45;97072.75;5074437;28;20044;-85
2023/05/21 09:41:09;;;;;;;7.28;5.18;;;;;;;36.58;35.71;97074.41;5075861;28;20032;-81
2023/05/21 09:43:35;;;;;;;10.57;5.20;;;;;;;35.49;36.12;97049.09;5057855;28;20093;-82
2023/05/21 09:46:01;;;;;;;11.95;5.15;;;;;;;35.21;37.16;97064.13;5074417;28;20035;-81
2023/05/21 09:48:36;;;;;;;11.07;5.47;;;;;;;35.88;35.95;97074.75;5074196;28;20028;-81
2023/05/21 09:51:12;;;;;;;8.90;4.82;;;;;;;36.03;34.66;97079.59;5056442;28;20129;-83
2023/05/21 09:53:44;;;;;;;6.28;4.93;;;;;;;37.06;34.24;97083.56;5056211;28;20450;-82
2023/05/21 09:56:10;;;;;;;8.95;5.18;;;;;;;34.37;36.20;97029.44;5090560;28;20498;-82
2023/05/21 09:58:37;;;;;;;15.10;10.50;;;;;;;35.74;35.47;97073.53;5055748;28;20036;-82
2023/05/21 10:01:02;;;;;;;16.52;11.18;;;;;;;36.21;34.84;97068.06;5072418;28;20028;-81
2023/05/21 10:03:30;;;;;;;9.95;6.80;;;;;;;36.54;33.95;97059.34;5072713;28;20030;-82
2023/05/21 10:05:57;;;;;;;10.02;6.70;;;;;;;37.25;33.55;97062.41;5072620;28;20028;-84
2023/05/21 10:08:26;;;;;;;10.27;7.28;;;;;;;37.44;32.93;97049.56;5072575;28;20028;-82
2023/05/21 10:10:51;;;;;;;12.05;5.40;;;;;;;37.04;33.27;97035.56;5072689;28;20071;-81
2023/05/21 10:13:21;;;;;;;8.60;4.55;;;;;;;36.45;34.73;97035.88;5071833;28;20479;-83
2023/05/21 10:15:54;;;;;;;12.52;7.32;;;;;;;37.47;33.22;97074.19;5071695;28;20035;-82
2023/05/21 10:18:21;;;;;;;7.78;5.45;;;;;;;37.73;32.40;97047.09;5071787;28;20020;-80
2023/05/21 10:20:46;;;;;;;8.20;5.43;;;;;;;37.82;33.46;97057.44;5054671;28;20032;-81
2023/05/21 10:23:12;;;;;;;7.90;4.75;;;;;;;37.22;34.05;97023.88;5071714;28;20042;-81
2023/05/21 10:25:38;;;;;;;13.57;4.63;;;;;;;37.66;32.97;97040.94;5071639;28;20028;-82
2023/05/21 10:28:05;;;;;;;8.77;4.93;;;;;;;37.59;33.15;97041.25;5054947;28;20042;-82
2023/05/21 10:30:31;;;;;;;6.15;4.47;;;;;;;37.59;32.38;97024.50;5071641;28;20460;-83
2023/05/21 10:32:57;;;;;;;7.68;4.40;;;;;;;37.09;33.53;97027.19;5089786;28;20020;-83
2023/05/21 10:35:23;;;;;;;7.82;4.88;;;;;;;37.34;32.84;97004.91;5071298;28;20052;-82
2023/05/21 10:37:50;;;;;;;7.38;5.68;;;;;;;37.56;33.05;97025.06;5089567;28;20024;-83
2023/05/21 10:40:15;;;;;;;8.52;5.00;;;;;;;37.36;32.59;97008.25;5071864;28;20026;-82
2023/05/21 10:42:59;;;;;;;7.43;4.75;;;;;;;37.41;32.29;97011.03;5071331;28;20028;-82
2023/05/21 10:45:42;;;;;;;7.38;4.15;;;;;;;38.12;32.01;97013.84;5070927;28;20380;-82
2023/05/21 10:48:07;;;;;;;7.68;4.30;;;;;;;37.83;32.44;97014.41;5048543;28;20099;-82
2023/05/21 10:51:04;;;;;;;6.55;4.70;;;;;;;37.99;32.30;97004.09;5071138;28;20032;-82
2023/05/21 10:53:42;;;;;;;6.95;4.70;;;;;;;38.18;31.76;97004.31;5085579;28;20122;-83
2023/05/21 10:56:31;;;;;;;6.80;4.65;;;;;;;39.21;30.17;97001.59;5089282;28;20059;-82
2023/05/21 10:59:06;;;;;;;5.47;4.60;;;;;;;39.60;30.70;97022.03;5070616;28;20019;-82
2023/05/21 11:01:35;;;;;;;7.65;4.30;;;;;;;40.41;28.69;97026.91;5070970;28;20479;-81
2023/05/21 11:04:02;;;;;;;8.18;3.92;;;;;;;40.15;29.04;96997.50;5054397;28;20106;-82
2023/05/21 11:06:28;;;;;;;10.73;4.10;;;;;;;39.69;27.68;96961.47;5070943;28;20039;-81
2023/05/21 11:08:53;;;;;;;7.68;4.40;;;;;;;39.48;29.19;96957.19;5070504;28;20042;-82
2023/05/21 11:11:57;;;;;;;7.03;4.22;;;;;;;38.63;29.86;96962.22;5054265;28;20060;-82
2023/05/21 11:14:39;;;;;;;6.80;4.10;;;;;;;39.11;27.93;96918.53;5054662;28;20064;-82
2023/05/21 11:17:08;;;;;;;8.00;4.07;;;;;;;39.43;28.11;96924.47;5029511;28;20045;-82